Time;durP1;ratioP1;P1;durP2;ratioP2;P2;SDS_P1;SDS_P2;PMS_P1;PMS_P2;Temp;Humidity;BMP_temperature;BMP_pressure;BME280_temperature;BME280_humidity;BME280_pressure;Samples;Min_cycle;Max_cycle;Signal;HPM_P1;HPM_P2
2021/12/14 00:00:43;;;;;;;;;1.00;1.00;;;;;7.99;73.16;102396.50;5070129;28;45394;-88
2021/12/14 00:03:09;;;;;;;;;2.00;2.00;;;;;8.32;72.94;102436.88;5068647;28;45422;-87
2021/12/14 00:05:36;;;;;;;;;2.25;0.75;;;;;7.94;73.41;102383.34;5066652;28;45365;-87
2021/12/14 00:08:03;;;;;;;;;2.00;2.00;;;;;7.66;73.15;102337.09;5065360;28;46157;-86
2021/12/14 00:10:49;;;;;;;;;1.00;1.00;;;;;7.62;72.76;102337.78;5065510;28;45325;-86
2021/12/14 00:15:49;;;;;;;;;1.00;1.00;;;;;7.88;72.96;102358.81;5065777;28;45279;-87
2021/12/14 00:18:14;;;;;;;;;1.00;1.00;;;;;7.59;73.14;102322.94;5068345;28;45188;-86
2021/12/14 00:20:46;;;;;;;;;4.00;1.50;;;;;7.66;73.01;102350.91;5068164;28;45273;-87
2021/12/14 00:25:48;;;;;;;;;0.25;0.25;;;;;7.58;73.48;102354.88;5085523;28;44681;-86
2021/12/14 00:28:26;;;;;;;;;1.75;0.00;;;;;7.76;73.16;102393.72;5068355;28;45270;-87
2021/12/14 00:30:53;;;;;;;;;1.00;1.00;;;;;7.44;73.18;102339.53;5066029;28;45466;-87
2021/12/14 00:33:22;;;;;;;;;1.50;1.50;;;;;7.51;72.99;102357.97;5051200;28;45399;-87
2021/12/14 00:35:48;;;;;;;;;0.50;0.25;;;;;7.24;73.50;102328.25;5046236;28;45325;-87
2021/12/14 00:38:17;;;;;;;;;1.75;0.00;;;;;7.79;73.69;102431.88;5045277;28;45694;-86
2021/12/14 00:40:47;;;;;;;;;2.00;1.00;;;;;7.44;73.74;102380.13;5045272;28;45389;-87
2021/12/14 00:43:12;;;;;;;;;0.00;0.00;;;;;7.60;73.81;102411.13;5045130;28;45227;-87
2021/12/14 00:45:41;;;;;;;;;0.50;0.25;;;;;7.46;74.48;102376.81;5045370;28;45210;-87
2021/12/14 00:48:08;;;;;;;;;0.00;0.00;;;;;7.80;73.88;102423.28;5045741;28;46576;-87
2021/12/14 00:50:35;;;;;;;;;1.00;1.00;;;;;7.51;74.15;102394.28;5045439;28;45376;-87
2021/12/14 00:53:02;;;;;;;;;0.00;0.00;;;;;7.09;73.80;102336.16;5046621;28;45265;-87
2021/12/14 00:55:33;;;;;;;;;0.25;0.25;;;;;7.66;74.18;102435.59;5043790;28;45228;-87
2021/12/14 00:57:59;;;;;;;;;0.00;0.00;;;;;6.72;73.81;102283.47;5045002;28;45454;-87
2021/12/14 01:00:33;;;;;;;;;0.00;0.00;;;;;6.72;73.89;102301.56;5043747;28;45419;-87
2021/12/14 01:02:59;;;;;;;;;2.00;1.00;;;;;7.04;74.40;102356.63;5055430;28;45444;-86
2021/12/14 01:05:31;;;;;;;;;0.00;0.00;;;;;6.62;74.33;102283.81;5059941;28;45427;-86
2021/12/14 01:07:58;;;;;;;;;0.00;0.00;;;;;7.14;74.01;102362.28;5046765;28;46049;-86
2021/12/14 01:10:34;;;;;;;;;0.00;0.00;;;;;7.02;73.96;102366.06;5045715;28;45445;-86
2021/12/14 01:13:05;;;;;;;;;0.00;0.00;;;;;6.95;74.06;102371.72;5043636;28;45375;-86
2021/12/14 01:16:15;;;;;;;;;1.75;0.75;;;;;7.24;73.96;102434.44;5045317;28;45370;-87
2021/12/14 01:21:46;;;;;;;;;0.00;0.00;;;;;7.31;74.41;102458.94;5044085;28;45310;-87
2021/12/14 01:24:20;;;;;;;;;0.00;0.00;;;;;6.59;74.12;102338.91;5044700;28;45358;-86
2021/12/14 01:26:46;;;;;;;;;0.00;0.00;;;;;7.29;73.96;102473.53;5045092;28;45583;-86
2021/12/14 01:29:14;;;;;;;;;0.00;0.00;;;;;6.91;74.25;102416.38;5044243;28;45514;-86
2021/12/14 01:31:42;;;;;;;;;0.75;0.75;;;;;6.93;74.37;102422.53;5045666;28;45310;-87
2021/12/14 01:34:14;;;;;;;;;0.50;0.00;;;;;6.86;75.01;102436.84;5064541;28;45467;-86
2021/12/14 01:36:48;;;;;;;;;0.50;0.50;;;;;6.24;74.59;102343.09;5063288;28;45445;-86
2021/12/14 01:41:57;;;;;;;;;0.25;0.25;;;;;7.21;74.85;102497.38;5064252;28;45336;-86
2021/12/14 01:44:27;;;;;;;;;0.50;0.25;;;;;6.40;74.88;102358.63;5064354;28;45356;-86
2021/12/14 01:47:02;;;;;;;;;0.00;0.00;;;;;6.94;75.08;102445.03;5064455;28;45467;-85
2021/12/14 01:49:29;;;;;;;;;0.00;0.00;;;;;7.01;75.12;102469.56;5064446;28;46512;-86
2021/12/14 01:51:58;;;;;;;;;0.25;0.25;;;;;6.63;75.17;102423.63;5062687;28;45354;-86
2021/12/14 01:54:28;;;;;;;;;1.00;0.00;;;;;6.68;74.89;102437.69;5064631;28;45321;-86
2021/12/14 01:56:54;;;;;;;;;0.00;0.00;;;;;6.94;75.02;102479.59;5063227;28;45384;-87
2021/12/14 01:59:33;;;;;;;;;0.00;0.00;;;;;6.40;74.77;102406.91;5062513;28;48341;-87
2021/12/14 02:02:20;;;;;;;;;0.00;0.00;;;;;6.58;75.17;102448.38;5063872;28;45241;-86
2021/12/14 02:04:47;;;;;;;;;1.00;0.00;;;;;6.92;74.93;102506.22;5063588;28;45287;-87
2021/12/14 02:07:16;;;;;;;;;0.00;0.00;;;;;6.68;74.68;102471.34;5064018;28;45630;-87
2021/12/14 02:09:46;;;;;;;;;2.00;2.00;;;;;7.05;74.91;102536.22;5062280;28;46213;-87
2021/12/14 02:12:15;;;;;;;;;1.25;1.00;;;;;6.98;74.89;102553.13;5063853;28;45501;-87
2021/12/14 02:14:42;;;;;;;;;0.00;0.00;;;;;6.70;75.08;102525.78;5063956;28;45407;-87
2021/12/14 02:17:11;;;;;;;;;0.25;0.25;;;;;6.64;74.95;102505.63;5064323;28;45235;-87
2021/12/14 02:19:37;;;;;;;;;0.75;0.75;;;;;6.97;75.90;102549.66;5064660;28;45542;-87
2021/12/14 02:22:06;;;;;;;;;0.00;0.00;;;;;7.04;75.55;102555.19;5064875;28;45349;-87
2021/12/14 02:24:33;;;;;;;;;0.00;0.00;;;;;6.51;75.29;102435.91;5063884;28;45261;-87
2021/12/14 02:27:00;;;;;;;;;0.00;0.00;;;;;7.17;75.37;102523.03;5072102;28;45477;-88
2021/12/14 02:29:29;;;;;;;;;0.00;0.00;;;;;6.11;75.64;102326.97;5082840;27;46727;-87
2021/12/14 02:32:05;;;;;;;;;0.00;0.00;;;;;6.84;75.22;102435.91;5079776;28;45064;-86
2021/12/14 02:34:39;;;;;;;;;0.00;0.00;;;;;6.62;75.50;102364.03;5054806;28;45307;-86
2021/12/14 02:37:05;;;;;;;;;0.75;0.75;;;;;7.04;75.25;102423.97;5048396;28;45388;-87
2021/12/14 02:42:07;;;;;;;;;3.25;2.50;;;;;7.31;74.77;102471.91;5045772;28;45421;-88
2021/12/14 02:44:33;;;;;;;;;0.75;0.75;;;;;7.45;74.80;102501.09;5044805;28;45204;-87
2021/12/14 02:47:07;;;;;;;;;0.00;0.00;;;;;6.76;75.38;102388.00;5045835;28;45266;-87
2021/12/14 02:49:36;;;;;;;;;0.75;0.50;;;;;6.95;75.02;102428.66;5047742;28;47034;-87
2021/12/14 02:52:13;;;;;;;;;0.25;0.25;;;;;7.37;74.99;102502.41;5043604;28;45427;-88
2021/12/14 02:54:43;;;;;;;;;2.00;1.00;;;;;7.30;74.98;102471.03;5044700;28;45253;-88
2021/12/14 02:57:18;;;;;;;;;0.00;0.00;;;;;7.09;75.26;102417.34;5043137;28;45316;-88
2021/12/14 02:59:47;;;;;;;;;0.00;0.00;;;;;7.22;74.62;102421.41;5042669;28;47105;-88
2021/12/14 03:02:20;;;;;;;;;0.00;0.00;;;;;7.71;74.45;102480.75;5047925;28;45424;-88
2021/12/14 03:04:52;;;;;;;;;1.00;1.00;;;;;7.74;74.43;102467.94;5071209;28;45272;-88
2021/12/14 03:07:22;;;;;;;;;1.75;0.00;;;;;7.43;74.19;102414.63;5055299;28;45140;-88
2021/12/14 03:09:57;;;;;;;;;2.00;0.25;;;;;7.60;73.76;102443.97;5044874;28;45456;-88
2021/12/14 03:12:31;;;;;;;;;0.00;0.00;;;;;7.77;74.24;102459.41;5042685;28;45434;-88
2021/12/14 03:15:07;;;;;;;;;0.00;0.00;;;;;7.21;74.72;102366.94;5063184;28;45350;-87
2021/12/14 03:17:33;;;;;;;;;0.00;0.00;;;;;7.15;73.85;102338.16;5065521;28;44941;-88
2021/12/14 03:20:06;;;;;;;;;0.00;0.00;;;;;7.73;73.65;102453.22;5051250;28;45418;-89
2021/12/14 03:22:38;;;;;;;;;0.00;0.00;;;;;7.53;73.40;102416.84;5042656;28;45387;-89
2021/12/14 03:25:05;;;;;;;;;0.75;0.00;;;;;7.36;73.59;102382.34;5042230;28;45339;-89
2021/12/14 03:27:31;;;;;;;;;0.00;0.00;;;;;7.69;73.53;102444.38;5042205;28;45280;-87
2021/12/14 03:29:57;;;;;;;;;0.00;0.00;;;;;7.83;73.52;102475.28;5042633;28;45540;-88
2021/12/14 03:32:22;;;;;;;;;0.00;0.00;;;;;7.06;73.67;102344.66;5050987;28;45348;-88
2021/12/14 03:34:48;;;;;;;;;0.00;0.00;;;;;7.54;73.84;102423.81;5069218;28;45360;-88
2021/12/14 03:37:20;;;;;;;;;0.00;0.00;;;;;7.13;73.36;102353.63;5069697;28;45395;-88
2021/12/14 03:39:51;;;;;;;;;0.75;0.75;;;;;7.88;73.70;102454.75;5069029;28;48218;-88
2021/12/14 03:42:37;;;;;;;;;0.00;0.00;;;;;7.33;73.61;102354.59;5069689;28;45294;-88
2021/12/14 03:45:17;;;;;;;;;0.00;0.00;;;;;7.66;73.53;102414.84;5068466;28;45534;-88
2021/12/14 03:47:53;;;;;;;;;0.00;0.00;;;;;7.26;73.46;102362.00;5070598;28;45503;-87
2021/12/14 03:50:24;;;;;;;;;0.00;0.00;;;;;7.29;73.39;102362.16;5070166;28;45444;-88
2021/12/14 03:52:50;;;;;;;;;0.50;0.50;;;;;7.87;73.36;102451.25;5069650;28;45335;-88
2021/12/14 03:55:24;;;;;;;;;1.00;1.00;;;;;7.91;72.90;102444.53;5069506;28;45285;-87
2021/12/14 03:57:51;;;;;;;;;0.00;0.00;;;;;7.39;73.39;102353.09;5071620;28;45219;-88
2021/12/14 04:00:27;;;;;;;;;0.00;0.00;;;;;7.90;73.47;102428.06;5070481;28;45433;-87
2021/12/14 04:02:56;;;;;;;;;1.75;0.00;;;;;7.93;72.90;102432.53;5067842;28;45425;-88
2021/12/14 04:05:21;;;;;;;;;1.75;0.00;;;;;7.54;73.30;102381.47;5069564;28;45293;-88
2021/12/14 04:07:48;;;;;;;;;1.50;0.00;;;;;7.04;73.84;102286.72;5070036;28;45602;-88
2021/12/14 04:10:34;;;;;;;;;0.00;0.00;;;;;7.92;73.56;102434.22;5069158;28;45632;-87
2021/12/14 04:13:01;;;;;;;;;0.75;0.50;;;;;7.92;73.08;102438.53;5069677;28;45234;-88
2021/12/14 04:15:28;;;;;;;;;2.00;0.25;;;;;7.86;72.96;102458.19;5068761;28;45389;-87
2021/12/14 04:17:54;;;;;;;;;1.75;1.00;;;;;7.38;73.66;102372.94;5067821;28;46246;-88
2021/12/14 04:20:37;;;;;;;;;3.75;1.00;;;;;7.17;73.28;102365.03;5067432;28;46497;-87
2021/12/14 04:23:08;;;;;;;;;0.75;0.75;;;;;6.53;73.34;102308.44;5069298;28;45452;-86
2021/12/14 04:25:35;;;;;;;;;0.00;0.00;;;;;6.99;73.96;102399.56;5069881;28;45289;-87
2021/12/14 04:28:06;;;;;;;;;0.75;0.75;;;;;6.69;73.68;102332.47;5070767;28;45476;-87
2021/12/14 04:30:31;;;;;;;;;1.00;1.00;;;;;7.07;74.24;102408.59;5070896;28;45493;-87
2021/12/14 04:33:08;;;;;;;;;0.25;0.25;;;;;6.82;74.26;102385.75;5070127;28;45226;-88
2021/12/14 04:35:37;;;;;;;;;0.00;0.00;;;;;6.92;74.43;102419.06;5072472;28;45168;-87
2021/12/14 04:38:10;;;;;;;;;0.75;0.25;;;;;6.77;74.67;102401.03;5058868;28;45487;-87
2021/12/14 04:54:21;;;;;;;;;0.75;0.75;;;;;7.02;74.70;102368.66;5044387;28;45311;-87
2021/12/14 04:56:47;;;;;;;;;0.00;0.00;;;;;7.29;74.32;102432.97;5044353;28;45256;-87
2021/12/14 04:59:23;;;;;;;;;0.75;0.75;;;;;7.41;74.56;102456.00;5044408;28;45314;-87
2021/12/14 05:01:51;;;;;;;;;1.25;0.75;;;;;7.40;74.81;102461.09;5041244;28;46829;-88
2021/12/14 05:04:27;;;;;;;;;0.00;0.00;;;;;6.62;74.14;102338.16;5048677;28;44655;-86
2021/12/14 05:07:04;;;;;;;;;0.75;0.00;;;;;6.77;74.25;102382.06;5060439;28;45269;-87
2021/12/14 05:09:35;;;;;;;;;1.75;0.00;;;;;6.71;74.33;102374.88;5044775;28;45246;-88
2021/12/14 05:12:07;;;;;;;;;1.00;1.00;;;;;7.20;74.50;102477.44;5048092;28;46697;-88
2021/12/14 05:14:34;;;;;;;;;2.00;2.00;;;;;6.94;74.39;102429.50;5046098;28;45405;-87
2021/12/14 05:17:03;;;;;;;;;0.00;0.00;;;;;7.10;74.78;102463.13;5044635;28;45452;-87
2021/12/14 05:19:32;;;;;;;;;0.00;0.00;;;;;6.46;75.22;102366.72;5063239;28;44861;-87
2021/12/14 05:22:08;;;;;;;;;0.00;0.00;;;;;6.96;75.55;102477.94;5066710;28;45643;-87
2021/12/14 05:25:24;;;;;;;;;0.00;0.00;;;;;5.78;74.99;102270.03;5053546;28;45412;-93
2021/12/14 05:27:56;;;;;;;;;1.00;0.25;;;;;6.77;75.34;102428.66;5038294;28;45427;-88
2021/12/14 05:30:29;;;;;;;;;1.00;0.00;;;;;6.04;75.19;102311.94;5024425;28;45553;-87
2021/12/14 05:32:58;;;;;;;;;2.00;1.00;;;;;6.65;75.16;102410.78;5042803;28;45332;-85
2021/12/14 05:35:24;;;;;;;;;2.00;2.00;;;;;6.75;75.07;102432.84;5043616;28;45436;-90
2021/12/14 05:37:53;;;;;;;;;0.50;0.50;;;;;6.72;75.28;102444.84;5032999;28;45467;-87
2021/12/14 05:40:57;;;;;;;;;0.00;0.00;;;;;6.32;75.30;102383.22;5035417;28;45578;-87
2021/12/14 05:43:14;;;;;;;;;0.75;0.75;;;;;5.86;75.12;102322.16;5023310;28;46776;-88
2021/12/14 05:45:47;;;;;;;;;0.00;0.00;;;;;6.84;75.29;102475.63;5024658;28;45284;-87
2021/12/14 05:48:20;;;;;;;;;0.00;0.00;;;;;6.76;75.80;102460.50;5024856;28;45316;-89
2021/12/14 05:50:50;;;;;;;;;0.00;0.00;;;;;6.81;75.36;102487.53;5024110;28;45566;-87
2021/12/14 05:53:37;;;;;;;;;0.00;0.00;;;;;6.37;75.36;102404.16;5030954;28;45294;-89
2021/12/14 05:56:08;;;;;;;;;0.00;0.00;;;;;6.60;75.79;102446.75;5046166;28;45421;-88
2021/12/14 05:58:34;;;;;;;;;0.25;0.25;;;;;6.86;75.02;102496.41;5045764;28;45276;-88
2021/12/14 06:01:04;;;;;;;;;2.00;0.75;;;;;6.33;75.07;102421.19;5053692;28;44677;-84
2021/12/14 06:03:46;;;;;;;;;3.00;0.25;;;;;6.28;75.83;102404.56;5050590;28;45508;-85
2021/12/14 06:06:25;;;;;;;;;1.00;0.00;;;;;6.58;76.01;102454.44;5047382;28;46371;-84
2021/12/14 06:09:00;;;;;;;;;0.00;0.00;;;;;6.61;75.73;102471.81;5038193;28;45364;-83
2021/12/14 06:11:28;;;;;;;;;0.50;0.00;;;;;6.51;75.55;102479.91;5029172;28;45426;-85
2021/12/14 06:13:54;;;;;;;;;0.00;0.00;;;;;6.53;75.40;102494.72;5040539;28;46256;-83
2021/12/14 06:16:30;;;;;;;;;0.00;0.00;;;;;6.63;75.44;102527.16;5042210;28;46060;-85
2021/12/14 06:19:21;;;;;;;;;0.00;0.00;;;;;6.66;75.72;102518.66;5036949;28;45415;-83
2021/12/14 06:21:52;;;;;;;;;3.00;0.00;;;;;6.78;75.91;102528.78;5030891;28;45248;-82
2021/12/14 06:24:17;;;;;;;;;0.00;0.00;;;;;6.88;75.44;102524.97;5026536;28;45471;-84
2021/12/14 06:26:48;;;;;;;;;1.00;0.00;;;;;6.68;75.56;102478.22;5031648;28;45413;-80
2021/12/14 06:29:18;;;;;;;;;1.00;0.00;;;;;7.06;75.45;102523.38;5025599;28;45378;-82
2021/12/14 06:31:45;;;;;;;;;0.00;0.00;;;;;6.82;75.26;102472.06;5038109;28;45326;-86
2021/12/14 06:34:20;;;;;;;;;0.00;0.00;;;;;6.49;74.71;102399.63;5041524;28;45905;-84
2021/12/14 06:36:48;;;;;;;;;1.50;1.50;;;;;7.24;75.08;102519.94;5025749;28;45413;-83
2021/12/14 06:39:14;;;;;;;;;0.25;0.00;;;;;6.68;74.44;102442.00;5031745;28;45170;-82
2021/12/14 06:41:39;;;;;;;;;0.75;0.00;;;;;6.61;74.95;102445.06;5044231;28;45288;-83
2021/12/14 06:44:05;;;;;;;;;0.00;0.00;;;;;6.94;74.17;102491.63;5041230;28;47065;-82
2021/12/14 06:46:34;;;;;;;;;1.50;0.00;;;;;6.93;74.56;102476.91;5042213;28;45272;-81
2021/12/14 06:49:11;;;;;;;;;0.50;0.50;;;;;7.31;74.62;102539.25;5042323;28;45283;-81
2021/12/14 06:51:54;;;;;;;;;1.00;1.00;;;;;6.84;74.32;102461.81;5042532;28;45410;-83
2021/12/14 06:54:24;;;;;;;;;0.00;0.00;;;;;6.95;74.38;102471.00;5040208;28;45387;-79
2021/12/14 06:56:52;;;;;;;;;0.00;0.00;;;;;7.40;74.24;102538.84;5040545;28;45327;-85
2021/12/14 06:59:20;;;;;;;;;0.25;0.00;;;;;7.45;73.95;102546.03;5040749;28;45297;-83
2021/12/14 07:01:58;;;;;;;;;1.50;0.00;;;;;7.00;74.01;102460.00;5041803;28;45454;-81
2021/12/14 07:04:33;;;;;;;;;1.00;1.00;;;;;7.09;74.46;102478.59;5031113;28;45697;-82
2021/12/14 07:07:03;;;;;;;;;0.00;0.00;;;;;7.11;74.08;102489.94;5037101;28;45535;-83
2021/12/14 07:09:33;;;;;;;;;1.75;0.25;;;;;7.43;74.38;102555.44;5029709;28;45404;-82
2021/12/14 07:12:04;;;;;;;;;0.00;0.00;;;;;7.14;74.14;102522.88;5030866;28;45218;-82
2021/12/14 07:14:36;;;;;;;;;0.25;0.25;;;;;7.40;74.49;102550.09;5034258;28;47961;-80
2021/12/14 07:17:07;;;;;;;;;2.00;0.00;;;;;6.92;74.46;102464.78;5038030;28;45540;-81
2021/12/14 07:20:01;;;;;;;;;0.00;0.00;;;;;6.97;74.17;102459.03;5037048;28;45786;-81
2021/12/14 07:22:31;;;;;;;;;1.00;0.00;;;;;7.51;74.14;102553.25;5035586;28;45421;-81
2021/12/14 07:25:06;;;;;;;;;2.00;1.00;;;;;7.51;73.78;102552.34;5035768;28;46356;-82
2021/12/14 07:27:36;;;;;;;;;3.00;0.50;;;;;7.51;73.66;102554.94;5033828;28;45485;-80
2021/12/14 07:30:08;;;;;;;;;0.00;0.00;;;;;7.56;74.26;102554.38;5036017;28;45448;-83
2021/12/14 07:32:47;;;;;;;;;0.00;0.00;;;;;7.60;73.89;102552.81;5024734;28;46036;-78
2021/12/14 07:35:18;;;;;;;;;0.00;0.00;;;;;7.16;73.58;102482.38;5044274;28;45297;-80
2021/12/14 07:37:43;;;;;;;;;2.00;0.00;;;;;7.63;74.10;102546.91;5041210;28;45269;-80
2021/12/14 07:40:10;;;;;;;;;1.75;0.75;;;;;7.45;73.35;102527.03;5041133;28;45349;-79
2021/12/14 07:42:36;;;;;;;;;0.00;0.00;;;;;7.40;73.61;102523.28;5041359;28;45516;-80
2021/12/14 07:45:02;;;;;;;;;2.00;2.00;;;;;6.76;73.73;102417.38;5047998;28;45346;-79
2021/12/14 07:47:27;;;;;;;;;0.50;0.50;;;;;7.41;73.47;102522.50;5054846;28;45323;-79
2021/12/14 07:49:55;;;;;;;;;1.50;0.25;;;;;7.62;74.14;102564.16;5036031;28;45823;-79
2021/12/14 07:52:24;;;;;;;;;2.25;2.00;;;;;7.58;74.08;102562.22;5039873;28;44854;-79
2021/12/14 07:55:14;;;;;;;;;5.00;3.00;;;;;7.34;74.29;102561.06;5049588;28;45412;-79
2021/12/14 07:57:39;;;;;;;;;1.25;1.00;;;;;7.52;74.19;102587.81;5058599;28;45535;-79
2021/12/14 08:00:13;;;;;;;;;1.00;1.00;;;;;7.19;74.27;102535.25;5060974;28;45346;-79
2021/12/14 08:02:48;;;;;;;;;1.50;1.00;;;;;7.41;74.19;102580.38;5035788;28;45986;-83
2021/12/14 08:05:24;;;;;;;;;1.50;0.50;;;;;6.81;73.37;102487.53;5040158;28;46074;-80
2021/12/14 08:07:58;;;;;;;;;2.25;2.25;;;;;7.55;73.94;102596.66;5030705;28;45617;-80
2021/12/14 08:10:30;;;;;;;;;1.50;1.00;;;;;7.29;73.98;102549.53;5034093;28;45269;-80
2021/12/14 08:12:58;;;;;;;;;1.75;1.75;;;;;7.32;73.79;102585.09;5032273;28;45516;-81
2021/12/14 08:15:39;;;;;;;;;2.25;1.00;;;;;7.50;73.83;102618.84;5049598;28;48181;-84
2021/12/14 08:18:12;;;;;;;;;1.00;1.00;;;;;7.43;74.12;102619.34;5034128;28;45455;-81
2021/12/14 08:20:46;;;;;;;;;2.00;2.00;;;;;6.59;74.54;102499.34;5031037;28;45664;-82
2021/12/14 08:23:17;;;;;;;;;1.00;1.00;;;;;7.37;73.91;102624.19;5035743;28;45418;-80
2021/12/14 08:25:43;;;;;;;;;0.25;0.25;;;;;7.33;73.78;102600.75;5041472;28;46611;-80
2021/12/14 08:28:10;;;;;;;;;0.25;0.25;;;;;6.56;74.06;102475.88;5044653;28;45395;-83
2021/12/14 08:30:38;;;;;;;;;2.00;0.00;;;;;7.39;73.80;102604.44;5035315;28;45462;-79
2021/12/14 08:33:04;;;;;;;;;0.25;0.25;;;;;7.54;73.64;102623.38;5054988;28;45543;-80
2021/12/14 08:35:30;;;;;;;;;2.75;1.00;;;;;7.40;73.83;102588.06;5038816;28;45710;-80
2021/12/14 08:38:00;;;;;;;;;2.25;1.00;;;;;7.57;73.63;102602.78;5043401;28;45419;-80
2021/12/14 08:40:43;;;;;;;;;1.00;0.00;;;;;7.51;73.68;102596.41;5043919;28;45352;-80
2021/12/14 08:43:21;;;;;;;;;1.00;0.00;;;;;7.56;73.78;102619.16;5043778;28;45414;-80
2021/12/14 08:46:04;;;;;;;;;0.00;0.00;;;;;7.60;73.37;102628.00;5047517;28;46528;-81
2021/12/14 08:48:47;;;;;;;;;1.50;1.00;;;;;7.59;74.02;102634.88;5043895;28;45243;-80
2021/12/14 08:51:20;;;;;;;;;5.00;0.75;;;;;7.04;73.59;102537.91;5040752;28;45313;-80
2021/12/14 08:53:50;;;;;;;;;3.75;1.25;;;;;6.78;74.04;102492.53;5042410;28;44922;-80
2021/12/14 08:56:19;;;;;;;;;0.50;0.50;;;;;7.64;73.55;102642.91;5042699;28;45300;-80
2021/12/14 08:58:47;;;;;;;;;1.75;1.25;;;;;7.44;73.47;102615.94;5044123;28;45472;-79
2021/12/14 09:01:25;;;;;;;;;1.00;1.00;;;;;7.63;73.54;102622.06;5040429;28;45190;-79
2021/12/14 09:03:56;;;;;;;;;1.00;0.00;;;;;7.61;73.62;102603.84;5043072;28;45455;-79
2021/12/14 09:06:29;;;;;;;;;2.25;1.50;;;;;7.51;73.55;102568.81;5039014;28;45573;-81
2021/12/14 09:09:00;;;;;;;;;1.00;1.00;;;;;7.09;73.59;102492.44;5037181;28;45342;-80
2021/12/14 09:11:29;;;;;;;;;0.50;0.50;;;;;7.84;73.39;102617.97;5034480;28;45242;-81
2021/12/14 09:13:55;;;;;;;;;1.25;1.25;;;;;7.80;73.46;102589.22;5043588;28;45564;-80
2021/12/14 09:16:26;;;;;;;;;2.00;2.00;;;;;7.92;73.39;102612.28;5043251;28;45449;-78
2021/12/14 09:19:07;;;;;;;;;0.50;0.50;;;;;7.93;73.24;102609.75;5034190;28;45488;-79
2021/12/14 09:21:37;;;;;;;;;1.50;1.50;;;;;7.63;73.29;102573.72;5022967;28;45269;-78
2021/12/14 09:24:07;;;;;;;;;0.00;0.00;;;;;7.70;73.26;102577.50;5037656;28;45469;-78
2021/12/14 09:26:35;;;;;;;;;2.25;1.50;;;;;7.80;73.12;102587.50;5042667;28;46885;-80
2021/12/14 09:29:05;;;;;;;;;1.00;1.00;;;;;7.64;72.42;102543.47;5041064;28;45211;-81
2021/12/14 09:31:36;;;;;;;;;1.50;1.50;;;;;7.79;72.57;102570.19;5032467;28;45513;-83
2021/12/14 09:34:03;;;;;;;;;0.00;0.00;;;;;7.63;72.44;102557.28;5039225;28;45572;-80
2021/12/14 09:36:29;;;;;;;;;0.25;0.25;;;;;8.09;72.73;102639.94;5042122;28;45432;-81
2021/12/14 09:39:00;;;;;;;;;2.25;0.50;;;;;8.05;72.38;102631.91;5041958;28;45295;-81
2021/12/14 09:41:31;;;;;;;;;2.00;0.00;;;;;7.48;72.77;102525.47;5042020;28;45290;-81
2021/12/14 09:43:58;;;;;;;;;1.00;1.00;;;;;8.24;72.65;102651.91;5042956;28;45231;-80
2021/12/14 09:47:12;;;;;;;;;1.75;1.75;;;;;8.25;72.56;102656.28;5042963;28;47002;-80
2021/12/14 09:49:39;;;;;;;;;0.25;0.25;;;;;7.26;72.54;102473.38;5035142;28;45486;-80
2021/12/14 09:52:09;;;;;;;;;1.75;1.00;;;;;8.29;72.16;102662.50;5023798;28;45253;-81
2021/12/14 09:54:38;;;;;;;;;3.75;2.00;;;;;7.98;72.67;102647.19;5024200;28;45339;-80
2021/12/14 09:57:18;;;;;;;;;2.50;1.50;;;;;8.06;72.23;102647.56;5037986;28;47480;-81
2021/12/14 09:59:44;;;;;;;;;1.00;1.00;;;;;7.67;72.27;102575.66;5037994;28;45405;-81
2021/12/14 10:02:15;;;;;;;;;1.00;0.50;;;;;8.01;72.60;102615.34;5039899;28;45430;-84
2021/12/14 10:04:49;;;;;;;;;2.00;1.00;;;;;8.27;72.69;102659.81;5042682;28;45244;-81
2021/12/14 10:07:16;;;;;;;;;2.00;2.00;;;;;8.29;71.99;102660.78;5042998;28;46326;-82
2021/12/14 10:09:46;;;;;;;;;0.25;0.25;;;;;8.22;72.19;102632.78;5042996;28;45268;-82
2021/12/14 10:15:01;;;;;;;;;1.00;1.00;;;;;8.45;72.23;102659.84;5042974;28;45315;-80
2021/12/14 10:17:27;;;;;;;;;1.00;1.00;;;;;8.00;72.09;102587.63;5042572;28;45432;-82
2021/12/14 10:19:53;;;;;;;;;1.00;1.00;;;;;7.86;71.76;102554.13;5042570;28;45343;-80
2021/12/14 10:22:30;;;;;;;;;1.75;1.75;;;;;8.10;71.74;102591.53;5042046;28;45496;-80
2021/12/14 10:25:03;;;;;;;;;1.00;1.00;;;;;8.33;71.63;102623.78;5043027;28;45695;-82
2021/12/14 10:27:31;;;;;;;;;1.75;0.25;;;;;8.54;71.90;102654.22;5042599;28;46658;-82
2021/12/14 10:29:59;;;;;;;;;4.00;0.00;;;;;8.15;71.39;102592.66;5042540;28;45346;-81
2021/12/14 10:32:31;;;;;;;;;2.75;2.75;;;;;8.19;71.48;102630.03;5051033;28;45285;-84
2021/12/14 10:35:06;;;;;;;;;2.00;2.00;;;;;8.37;71.71;102667.25;5062460;28;45460;-81
2021/12/14 10:43:24;;;;;;;;;1.50;1.50;;;;;8.17;72.05;102598.81;5041680;28;45383;-82
2021/12/14 10:46:08;;;;;;;;;0.25;0.25;;;;;7.93;71.48;102580.34;5042651;28;45256;-81
2021/12/14 10:48:37;;;;;;;;;0.00;0.00;;;;;8.19;71.19;102636.13;5041751;28;46408;-84
2021/12/14 10:51:07;;;;;;;;;4.75;1.00;;;;;8.47;71.80;102675.47;5041149;28;45967;-81
2021/12/14 10:53:34;;;;;;;;;1.25;0.75;;;;;8.38;71.48;102642.19;5040898;28;45314;-82
2021/12/14 10:56:13;;;;;;;;;0.00;0.00;;;;;8.34;71.18;102635.97;5042530;28;45279;-82
2021/12/14 10:58:41;;;;;;;;;0.75;0.75;;;;;8.34;71.28;102617.81;5047276;28;46077;-81
2021/12/14 11:01:15;;;;;;;;;1.00;1.00;;;;;8.37;71.36;102633.50;5051033;28;45288;-81
2021/12/14 11:03:46;;;;;;;;;1.25;1.25;;;;;8.67;71.02;102665.22;5046490;28;45405;-83
2021/12/14 11:06:14;;;;;;;;;2.50;1.50;;;;;8.00;71.49;102540.94;5041582;28;45340;-83
2021/12/14 11:11:38;;;;;;;;;4.00;2.00;;;;;8.73;70.98;102658.59;5041553;28;45454;-82
2021/12/14 11:14:13;;;;;;;;;2.00;1.00;;;;;8.71;71.24;102661.94;5041547;28;45213;-80
2021/12/14 11:19:41;;;;;;;;;2.00;1.00;;;;;8.81;70.98;102663.25;5041138;28;45228;-82
2021/12/14 11:22:15;;;;;;;;;0.75;0.75;;;;;8.26;70.41;102574.13;5041674;28;45477;-81
2021/12/14 11:24:44;;;;;;;;;3.00;1.00;;;;;8.44;71.05;102605.25;5041572;28;45496;-83
2021/12/14 11:27:25;;;;;;;;;2.25;1.75;;;;;8.65;70.21;102626.19;5041784;28;45461;-82
2021/12/14 11:30:07;;;;;;;;;4.50;1.00;;;;;8.83;70.44;102657.34;5041443;28;45397;-82
2021/12/14 11:32:32;;;;;;;;;1.75;0.00;;;;;8.54;70.42;102611.81;5039374;28;45364;-82
2021/12/14 11:34:58;;;;;;;;;3.00;1.00;;;;;8.73;70.86;102648.19;5041338;28;45506;-81
2021/12/14 11:37:32;;;;;;;;;1.25;1.25;;;;;8.14;70.66;102530.34;5040627;28;45437;-82
2021/12/14 11:39:58;;;;;;;;;0.50;0.00;;;;;8.66;70.92;102608.88;5042199;28;45434;-83
2021/12/14 11:42:29;;;;;;;;;2.25;1.25;;;;;8.66;70.71;102585.50;5045932;28;44785;-82
2021/12/14 11:45:04;;;;;;;;;9.00;4.25;;;;;8.97;70.61;102636.28;5042233;28;45288;-81
2021/12/14 11:50:33;;;;;;;;;1.50;1.50;;;;;8.91;70.09;102612.63;5041494;28;46344;-81
2021/12/14 11:53:22;;;;;;;;;3.50;2.00;;;;;8.46;70.23;102541.34;5041603;28;45302;-82
2021/12/14 11:55:53;;;;;;;;;0.00;0.00;;;;;9.05;70.25;102637.53;5043553;28;45401;-83
2021/12/14 11:58:30;;;;;;;;;1.00;1.00;;;;;8.18;70.57;102490.75;5045716;28;45453;-80
2021/12/14 12:01:05;;;;;;;;;1.75;1.75;;;;;9.06;70.35;102634.09;5043346;28;46414;-83
2021/12/14 12:03:48;;;;;;;;;3.50;3.00;;;;;9.06;70.15;102630.59;5045309;28;45335;-83
2021/12/14 12:06:46;;;;;;;;;2.00;2.00;;;;;9.07;70.42;102624.63;5044761;28;45467;-82
2021/12/14 12:09:32;;;;;;;;;3.50;1.25;;;;;9.11;70.29;102618.72;5044242;28;45243;-82
2021/12/14 12:12:07;;;;;;;;;1.00;1.00;;;;;9.11;69.94;102614.44;5044872;28;45367;-81
2021/12/14 12:15:01;;;;;;;;;4.00;3.00;;;;;9.15;70.30;102619.78;5044775;28;45264;-79
2021/12/14 12:17:30;;;;;;;;;1.75;1.75;;;;;9.13;70.32;102620.56;5044730;28;45161;-83
2021/12/14 12:20:08;;;;;;;;;3.25;2.00;;;;;9.17;70.04;102618.13;5042494;28;45359;-81
2021/12/14 12:22:38;;;;;;;;;1.25;0.50;;;;;8.76;70.23;102540.97;5042954;28;45239;-79
2021/12/14 12:25:21;;;;;;;;;2.50;1.00;;;;;8.75;69.97;102552.19;5044352;28;45377;-80
2021/12/14 12:27:56;;;;;;;;;1.00;1.00;;;;;9.12;70.35;102611.00;5044258;28;45345;-79
2021/12/14 12:30:35;;;;;;;;;2.25;2.25;;;;;9.20;70.16;102610.47;5044553;28;45588;-80
2021/12/14 12:33:09;;;;;;;;;3.75;2.00;;;;;8.84;70.18;102541.34;5051927;28;47279;-81
2021/12/14 12:35:34;;;;;;;;;1.00;1.00;;;;;9.35;69.88;102608.53;5045966;28;45292;-81
2021/12/14 12:38:21;;;;;;;;;3.00;2.00;;;;;9.23;70.20;102592.41;5044964;28;45449;-81
2021/12/14 12:40:52;;;;;;;;;4.25;2.25;;;;;9.21;69.77;102583.63;5044933;28;45362;-81